createdAt,value
2023-04-17T00:00:03.691Z,11.71
2023-04-17T00:01:50.301Z,10.95
2023-04-17T00:03:19.769Z,11.37
2023-04-17T00:05:00.681Z,12.23
2023-04-17T00:06:34.164Z,13.00
2023-04-17T00:08:07.415Z,13.72
2023-04-17T00:09:40.492Z,13.82
2023-04-17T00:11:10.040Z,13.16
2023-04-17T00:12:46.734Z,12.21
2023-04-17T00:14:10.816Z,11.39
2023-04-17T00:15:53.166Z,10.95
2023-04-17T00:17:33.808Z,11.57
2023-04-17T00:19:07.201Z,12.48
2023-04-17T00:21:02.205Z,13.22
2023-04-17T00:22:38.369Z,13.75
2023-04-17T00:24:03.077Z,13.33
2023-04-17T00:25:26.581Z,12.55
2023-04-17T00:27:01.402Z,11.65
2023-04-17T00:28:42.428Z,10.97
2023-04-17T00:30:18.629Z,11.25
2023-04-17T00:31:48.575Z,12.15
2023-04-17T00:33:21.723Z,12.84
2023-04-17T00:34:44.073Z,13.49
2023-04-17T00:36:19.453Z,13.70
2023-04-17T00:38:04.753Z,13.00
2023-04-17T00:39:37.948Z,12.00
2023-04-17T00:41:19.323Z,11.17
2023-04-17T00:42:59.940Z,10.82
2023-04-17T00:44:40.328Z,11.53
2023-04-17T00:46:18.279Z,12.43
2023-04-17T00:47:54.343Z,13.21
2023-04-17T00:49:27.502Z,13.72
2023-04-17T00:51:12.111Z,13.34
2023-04-17T00:52:33.863Z,12.39
2023-04-17T00:54:07.275Z,11.49
2023-04-17T00:55:31.809Z,10.84
2023-04-17T00:57:08.309Z,10.85
2023-04-17T00:58:54.378Z,11.72
2023-04-17T01:00:34.672Z,12.63
2023-04-17T01:02:20.334Z,13.33
2023-04-17T01:04:06.214Z,13.54
2023-04-17T01:05:42.040Z,12.81
2023-04-17T01:07:17.003Z,11.90
2023-04-17T01:09:11.227Z,10.98
2023-04-17T01:10:57.644Z,11.09
2023-04-17T01:12:33.501Z,11.93
2023-04-17T01:14:28.152Z,12.84
2023-04-17T01:16:01.785Z,13.55
2023-04-17T01:17:48.879Z,13.34
2023-04-17T01:19:33.371Z,12.36
2023-04-17T01:20:58.505Z,11.45
2023-04-17T01:22:39.142Z,10.80
2023-04-17T01:24:24.311Z,11.23
2023-04-17T01:26:11.913Z,12.17
2023-04-17T01:27:52.595Z,12.98
2023-04-17T01:29:37.621Z,13.59
2023-04-17T01:31:13.439Z,13.34
2023-04-17T01:32:54.773Z,12.45
2023-04-17T01:34:27.435Z,11.48
2023-04-17T01:36:08.980Z,10.85
2023-04-17T01:37:42.363Z,11.27
2023-04-17T01:39:27.411Z,12.10
2023-04-17T01:41:19.359Z,12.96
2023-04-17T01:43:03.746Z,13.58
2023-04-17T01:44:44.688Z,13.36
2023-04-17T01:46:25.427Z,12.38
2023-04-17T01:48:11.139Z,11.50
2023-04-17T01:49:47.180Z,10.70
2023-04-17T01:51:20.406Z,11.09
2023-04-17T01:53:01.460Z,11.89
2023-04-17T01:54:54.301Z,12.77
2023-04-17T01:56:18.796Z,13.42
2023-04-17T01:57:53.289Z,13.32
2023-04-17T01:59:26.182Z,12.61
2023-04-17T02:01:15.498Z,11.58
2023-04-17T02:03:00.975Z,10.63
2023-04-17T02:04:25.189Z,10.79
2023-04-17T02:06:06.536Z,11.58
2023-04-17T02:09:30.935Z,13.21
2023-04-17T02:11:16.310Z,13.37
2023-04-17T02:13:01.538Z,12.57
2023-04-17T02:14:28.933Z,11.62
2023-04-17T02:16:22.727Z,10.76
2023-04-17T02:18:08.028Z,10.76
2023-04-17T02:19:53.772Z,11.65
2023-04-17T02:21:26.448Z,12.45
2023-04-17T02:23:20.251Z,13.16
2023-04-17T02:25:05.374Z,13.38
2023-04-17T02:26:58.559Z,12.56
2023-04-17T02:28:31.902Z,11.41
2023-04-17T02:30:17.808Z,10.66
2023-04-17T02:31:54.022Z,10.86
2023-04-17T02:33:15.672Z,11.60
2023-04-17T02:35:11.165Z,12.43
2023-04-17T02:36:47.152Z,13.23
2023-04-17T02:38:20.635Z,13.51
2023-04-17T02:40:04.116Z,13.03
2023-04-17T02:41:39.724Z,12.00
2023-04-17T02:43:13.708Z,11.12
2023-04-17T02:44:49.314Z,10.76
2023-04-17T02:46:33.995Z,11.45
2023-04-17T02:48:15.644Z,12.26
2023-04-17T02:50:00.610Z,13.05
2023-04-17T02:51:45.843Z,13.56
2023-04-17T02:53:29.120Z,13.23
2023-04-17T02:55:18.825Z,12.11
2023-04-17T02:57:10.034Z,11.04
2023-04-17T02:58:45.781Z,10.77
2023-04-17T03:00:30.737Z,11.56
2023-04-17T03:02:05.185Z,12.48
2023-04-17T03:03:53.402Z,13.17
2023-04-17T03:05:41.804Z,13.60
2023-04-17T03:07:17.211Z,13.03
2023-04-17T03:08:53.493Z,11.97
2023-04-17T03:10:26.780Z,11.08
2023-04-17T03:12:00.751Z,10.64
2023-04-17T03:13:45.873Z,11.18
2023-04-17T03:15:31.829Z,12.15
2023-04-17T03:17:23.418Z,12.95
2023-04-17T03:19:12.115Z,13.48
2023-04-17T03:20:57.236Z,12.92
2023-04-17T03:22:38.090Z,11.89
2023-04-17T03:24:23.882Z,10.97
2023-04-17T03:26:06.811Z,10.87
2023-04-17T03:27:40.376Z,11.57
2023-04-17T03:29:14.362Z,12.39
2023-04-17T03:30:59.438Z,13.15
2023-04-17T03:32:32.886Z,13.60
2023-04-17T03:34:15.096Z,13.24
2023-04-17T03:35:48.498Z,12.12
2023-04-17T03:37:33.478Z,11.21
2023-04-17T03:39:06.611Z,10.80
2023-04-17T03:40:51.495Z,11.42
2023-04-17T03:42:32.944Z,12.31
2023-04-17T03:44:25.623Z,13.07
2023-04-17T03:46:11.705Z,13.50
2023-04-17T03:47:44.979Z,12.93
2023-04-17T03:49:29.137Z,11.98
2023-04-17T03:51:03.059Z,10.89
2023-04-17T03:52:55.118Z,10.71
2023-04-17T03:54:35.989Z,11.53
2023-04-17T03:56:12.678Z,12.38
2023-04-17T03:57:48.677Z,12.96
2023-04-17T03:59:13.299Z,13.48
2023-04-17T04:00:56.876Z,13.36
2023-04-17T04:02:34.261Z,12.44
2023-04-17T04:04:18.408Z,11.47
2023-04-17T04:05:55.873Z,10.87
2023-04-17T04:07:29.526Z,11.29
2023-04-17T04:09:06.120Z,12.14
2023-04-17T04:10:39.552Z,12.97
2023-04-17T04:12:24.960Z,13.54
2023-04-17T04:14:00.955Z,13.65
2023-04-17T04:15:34.427Z,12.90
2023-04-17T04:17:15.319Z,11.85
2023-04-17T04:18:56.748Z,10.93
2023-04-17T04:20:36.828Z,11.10
2023-04-17T04:22:34.243Z,12.03
2023-04-17T04:24:20.283Z,12.86
2023-04-17T04:26:07.353Z,13.48
2023-04-17T04:27:57.066Z,13.64
2023-04-17T04:29:42.883Z,12.74
2023-04-17T04:31:26.258Z,11.70
2023-04-17T04:33:16.168Z,11.02
2023-04-17T04:35:09.631Z,11.59
2023-04-17T04:36:50.846Z,12.54
2023-04-17T04:38:32.073Z,13.20
2023-04-17T04:40:19.809Z,13.74
2023-04-17T04:41:51.429Z,13.61
2023-04-17T04:43:37.541Z,12.72
2023-04-17T04:45:23.240Z,11.62
2023-04-17T04:46:56.864Z,10.96
2023-04-17T04:48:26.256Z,11.38
2023-04-17T04:50:09.400Z,12.11
2023-04-17T04:51:33.810Z,12.88
2023-04-17T04:53:10.455Z,13.42
2023-04-17T04:55:01.036Z,13.96
2023-04-17T04:56:34.400Z,13.91
2023-04-17T04:58:15.255Z,13.11
2023-04-17T04:59:57.106Z,12.09
2023-04-17T05:01:44.743Z,11.36
2023-04-17T05:03:18.064Z,11.81
2023-04-17T05:05:02.222Z,12.60
2023-04-17T05:06:38.915Z,13.46
2023-04-17T05:08:20.392Z,14.03
2023-04-17T05:10:07.663Z,14.09
2023-04-17T05:11:54.390Z,13.22
2023-04-17T05:13:42.102Z,12.17
2023-04-17T05:15:32.501Z,11.39
2023-04-17T05:17:09.942Z,11.91
2023-04-17T05:18:58.152Z,12.74
2023-04-17T05:20:40.297Z,13.59
2023-04-17T05:22:27.535Z,14.14
2023-04-17T05:24:20.844Z,14.12
2023-04-17T05:26:11.546Z,13.19
2023-04-17T05:27:37.484Z,12.19
2023-04-17T05:29:13.533Z,11.64
2023-04-17T05:30:59.402Z,12.08
2023-04-17T05:32:53.900Z,13.07
2023-04-17T05:34:36.316Z,13.84
2023-04-17T05:36:01.574Z,14.37
2023-04-17T05:37:51.203Z,14.32
2023-04-17T05:39:13.279Z,13.44
2023-04-17T05:40:35.162Z,12.61
2023-04-17T05:41:57.518Z,11.90
2023-04-17T05:43:42.679Z,11.93
2023-04-17T05:45:28.027Z,12.78
2023-04-17T05:47:04.325Z,13.64
2023-04-17T05:48:37.292Z,14.27
2023-04-17T05:50:18.940Z,14.59
2023-04-17T05:51:53.115Z,13.98
2023-04-17T05:53:38.269Z,13.02
2023-04-17T05:55:23.764Z,12.03
2023-04-17T05:57:11.363Z,12.05
2023-04-17T05:58:45.102Z,12.82
2023-04-17T06:00:24.754Z,13.64
2023-04-17T06:01:48.902Z,14.37
2023-04-17T06:03:36.515Z,14.77
2023-04-17T06:05:24.212Z,14.18
2023-04-17T06:07:09.794Z,13.11
2023-04-17T06:08:58.075Z,12.18
2023-04-17T06:10:33.539Z,12.31
2023-04-17T06:12:24.529Z,13.11
2023-04-17T06:14:03.085Z,14.02
2023-04-17T06:15:44.960Z,14.65
2023-04-17T06:17:20.970Z,15.00
2023-04-17T06:18:57.017Z,14.40
2023-04-17T06:20:41.999Z,13.45
2023-04-17T06:22:27.601Z,12.56
2023-04-17T06:23:57.190Z,12.62
2023-04-17T06:25:19.087Z,13.25
2023-04-17T06:27:04.704Z,14.08
2023-04-17T06:28:40.168Z,14.83
2023-04-17T06:30:05.400Z,15.03
2023-04-17T06:31:53.501Z,14.39
2023-04-17T06:33:38.114Z,13.42
2023-04-17T06:35:15.209Z,12.62
2023-04-17T06:37:11.460Z,12.61
2023-04-17T06:38:47.580Z,13.55
2023-04-17T06:40:21.571Z,14.31
2023-04-17T06:42:08.204Z,15.03
2023-04-17T06:43:36.991Z,15.60
2023-04-17T06:45:26.997Z,15.36
2023-04-17T06:46:48.702Z,14.51
2023-04-17T06:48:24.540Z,13.67
2023-04-17T06:50:00.717Z,13.00
2023-04-17T06:51:41.675Z,13.06
2023-04-17T06:53:26.887Z,13.95
2023-04-17T06:55:10.165Z,14.89
2023-04-17T06:56:43.761Z,15.65
2023-04-17T06:58:17.153Z,15.96
2023-04-17T06:59:50.614Z,15.42
2023-04-17T07:01:31.406Z,14.55
2023-04-17T07:03:25.182Z,13.67
2023-04-17T07:07:01.133Z,14.16
2023-04-17T07:08:55.681Z,15.13
2023-04-17T07:10:31.136Z,15.97
2023-04-17T07:12:18.850Z,16.11
2023-04-17T07:13:54.661Z,15.33
2023-04-17T07:15:30.442Z,14.56
2023-04-17T07:17:06.332Z,13.76
2023-04-17T07:18:39.645Z,13.89
2023-04-17T07:20:13.221Z,14.71
2023-04-17T07:21:54.120Z,15.59
2023-04-17T07:23:27.434Z,16.27
2023-04-17T07:25:12.746Z,16.32
2023-04-17T07:26:45.940Z,15.49
2023-04-17T07:28:39.941Z,14.65
2023-04-17T07:30:16.064Z,13.87
2023-04-17T07:31:49.527Z,13.92
2023-04-17T07:33:25.564Z,14.82
2023-04-17T07:35:07.125Z,15.69
2023-04-17T07:37:00.480Z,16.47
2023-04-17T07:38:45.437Z,16.87
2023-04-17T07:40:30.572Z,16.23
2023-04-17T07:42:18.071Z,15.28
2023-04-17T07:44:03.437Z,14.40
2023-04-17T07:45:37.578Z,14.20
2023-04-17T07:47:23.933Z,15.00
2023-04-17T07:48:57.748Z,15.97
2023-04-17T07:50:33.315Z,16.68
2023-04-17T07:52:00.159Z,16.96
2023-04-17T07:53:45.441Z,16.45
2023-04-17T07:55:26.582Z,15.62
2023-04-17T07:56:49.415Z,14.89
2023-04-17T07:58:23.090Z,14.35
2023-04-17T08:00:17.272Z,14.51
2023-04-17T08:01:50.773Z,15.45
2023-04-17T08:03:24.488Z,16.42
2023-04-17T08:05:10.026Z,16.93
2023-04-17T08:06:36.153Z,16.59
2023-04-17T08:08:09.727Z,15.86
2023-04-17T08:10:03.418Z,15.13
2023-04-17T08:11:57.920Z,14.50
2023-04-17T08:13:29.656Z,15.07
2023-04-17T08:15:03.486Z,16.02
2023-04-17T08:16:48.876Z,16.79
2023-04-17T08:18:21.890Z,16.99
2023-04-17T08:19:53.492Z,16.43
2023-04-17T08:21:38.478Z,15.69
2023-04-17T08:23:23.710Z,14.98
2023-04-17T08:25:09.612Z,14.71
2023-04-17T08:26:43.031Z,15.55
2023-04-17T08:28:20.820Z,16.39
2023-04-17T08:30:07.185Z,17.23
2023-04-17T08:31:40.480Z,17.12
2023-04-17T08:33:23.006Z,16.41
2023-04-17T08:34:47.085Z,15.60
2023-04-17T08:36:28.330Z,14.95
2023-04-17T08:38:15.007Z,14.74
2023-04-17T08:39:38.839Z,15.53
2023-04-17T08:41:05.663Z,16.48
2023-04-17T08:42:50.601Z,17.39
2023-04-17T08:44:21.958Z,17.68
2023-04-17T08:45:59.042Z,17.17
2023-04-17T08:47:23.291Z,16.42
2023-04-17T08:49:18.167Z,15.81
2023-04-17T08:51:03.576Z,15.70
2023-04-17T08:52:48.682Z,16.70
2023-04-17T08:54:21.986Z,17.67
2023-04-17T08:55:57.983Z,17.97
2023-04-17T08:57:49.181Z,17.45
2023-04-17T08:59:23.966Z,16.69
2023-04-17T09:00:46.055Z,16.16
2023-04-17T09:02:10.374Z,15.69
2023-04-17T09:04:00.541Z,15.21
2023-04-17T09:05:45.920Z,15.42
2023-04-17T09:07:31.106Z,16.47
2023-04-17T09:09:05.098Z,17.44
2023-04-17T09:10:38.741Z,17.60
2023-04-17T09:12:01.136Z,17.11
2023-04-17T09:13:35.342Z,16.54
2023-04-17T09:15:08.812Z,15.95
2023-04-17T09:16:57.132Z,15.44
2023-04-17T09:18:32.880Z,15.44
2023-04-17T09:20:09.152Z,16.36
2023-04-17T09:21:54.610Z,17.31
2023-04-17T09:23:18.666Z,17.73
2023-04-17T09:25:12.609Z,17.28
2023-04-17T09:26:46.378Z,16.44
2023-04-17T09:28:10.264Z,15.90
2023-04-17T09:29:43.694Z,15.39
2023-04-17T09:31:17.234Z,15.15
2023-04-17T09:32:50.609Z,15.81
2023-04-17T09:34:16.859Z,16.69
2023-04-17T09:35:50.987Z,17.58
2023-04-17T09:37:35.886Z,17.73
2023-04-17T09:39:20.822Z,17.12
2023-04-17T09:40:54.400Z,16.39
2023-04-17T09:42:23.559Z,15.90
2023-04-17T09:43:55.712Z,15.43
2023-04-17T09:45:17.857Z,15.32
2023-04-17T09:46:58.574Z,16.10
2023-04-17T09:48:20.279Z,17.11
2023-04-17T09:50:04.547Z,18.01
2023-04-17T09:51:44.865Z,18.66
2023-04-17T09:53:27.152Z,18.30
2023-04-17T09:54:52.133Z,17.63
2023-04-17T09:56:47.089Z,17.02
2023-04-17T09:58:17.008Z,16.42
2023-04-17T09:59:48.718Z,15.99
2023-04-17T10:01:13.204Z,15.64
2023-04-17T10:03:03.314Z,15.36
2023-04-17T10:04:39.212Z,16.04
2023-04-17T10:06:34.044Z,17.10
2023-04-17T10:08:16.889Z,18.16
2023-04-17T10:10:11.144Z,18.10
2023-04-17T10:11:32.794Z,17.48
2023-04-17T10:13:06.986Z,16.95
2023-04-17T10:14:48.219Z,16.54
2023-04-17T10:16:21.534Z,16.16
2023-04-17T10:17:43.543Z,15.83
2023-04-17T10:19:28.610Z,15.73
2023-04-17T10:21:15.197Z,16.64
2023-04-17T10:23:09.033Z,17.91
2023-04-17T10:24:42.644Z,18.68
2023-04-17T10:26:16.039Z,18.34
2023-04-17T10:27:59.144Z,17.82
2023-04-17T10:29:32.025Z,17.22
2023-04-17T10:31:26.054Z,16.72
2023-04-17T10:33:13.980Z,16.31
2023-04-17T10:35:09.265Z,15.99
2023-04-17T10:36:51.953Z,15.71
2023-04-17T10:38:27.078Z,16.10
2023-04-17T10:40:04.202Z,17.04
2023-04-17T10:41:48.945Z,18.12
2023-04-17T10:43:23.607Z,18.24
2023-04-17T10:45:08.895Z,17.65
2023-04-17T10:46:44.677Z,16.98
2023-04-17T10:48:06.708Z,16.50
2023-04-17T10:49:35.811Z,16.05
2023-04-17T10:51:17.427Z,15.65
2023-04-17T10:52:42.184Z,15.36
2023-04-17T10:54:18.140Z,15.74
2023-04-17T10:55:51.909Z,16.87
2023-04-17T10:57:13.549Z,17.73
2023-04-17T10:58:50.113Z,18.14
2023-04-17T11:00:31.150Z,17.74
2023-04-17T11:02:21.686Z,17.15
2023-04-17T11:03:54.806Z,16.62
2023-04-17T11:05:39.762Z,16.14
2023-04-17T11:07:24.823Z,15.70
2023-04-17T11:09:09.852Z,15.46
2023-04-17T11:10:41.398Z,16.15
2023-04-17T11:12:26.408Z,17.31
2023-04-17T11:14:14.226Z,18.25
2023-04-17T11:15:58.579Z,18.11
2023-04-17T11:17:31.918Z,17.38
2023-04-17T11:19:17.992Z,16.77
2023-04-17T11:20:51.718Z,16.21
2023-04-17T11:22:25.395Z,15.83
2023-04-17T11:23:59.322Z,15.54
2023-04-17T11:25:23.547Z,15.71
2023-04-17T11:26:59.485Z,16.68
2023-04-17T11:28:32.984Z,17.64
2023-04-17T11:30:09.047Z,18.47
2023-04-17T11:31:44.717Z,18.26
2023-04-17T11:33:18.492Z,17.68
2023-04-17T11:35:08.161Z,17.05
2023-04-17T11:36:41.470Z,16.53
2023-04-17T11:38:17.538Z,16.23
2023-04-17T11:39:51.679Z,16.01
2023-04-17T11:41:23.697Z,16.56
2023-04-17T11:43:11.131Z,17.75
2023-04-17T11:44:44.460Z,18.74
2023-04-17T11:46:25.451Z,18.73
2023-04-17T11:48:02.201Z,18.02
2023-04-17T11:49:37.810Z,17.33
2023-04-17T11:51:13.864Z,16.72
2023-04-17T11:52:47.855Z,16.24
2023-04-17T11:54:29.032Z,16.01
2023-04-17T11:56:02.697Z,16.78
2023-04-17T11:57:50.540Z,17.66
2023-04-17T11:59:24.094Z,18.55
2023-04-17T12:00:57.555Z,18.35
2023-04-17T12:02:21.673Z,17.74
2023-04-17T12:03:50.615Z,17.13
2023-04-17T12:05:24.165Z,16.50
2023-04-17T12:07:14.494Z,16.09
2023-04-17T12:08:50.353Z,16.81
2023-04-17T12:10:14.436Z,17.63
2023-04-17T12:11:56.890Z,18.41
2023-04-17T12:13:42.176Z,18.45
2023-04-17T12:15:23.231Z,17.74
2023-04-17T12:16:56.589Z,16.96
2023-04-17T12:18:29.654Z,16.36
2023-04-17T12:20:24.343Z,15.91
2023-04-17T12:22:04.794Z,16.35
2023-04-17T12:23:50.992Z,17.41
2023-04-17T12:25:27.178Z,18.37
2023-04-17T12:27:09.155Z,18.72
2023-04-17T12:28:58.222Z,18.13
2023-04-17T12:30:51.681Z,17.19
2023-04-17T12:32:32.492Z,16.38
2023-04-17T12:34:18.180Z,15.98
2023-04-17T12:35:51.912Z,16.57
2023-04-17T12:37:25.609Z,17.56
2023-04-17T12:38:52.436Z,18.25
2023-04-17T12:40:14.331Z,18.73
2023-04-17T12:42:00.002Z,18.40
2023-04-17T12:43:35.742Z,17.66
2023-04-17T12:45:20.210Z,16.89
2023-04-17T12:47:15.296Z,16.26
2023-04-17T12:49:00.788Z,16.57
2023-04-17T12:50:46.402Z,17.56
2023-04-17T12:52:08.551Z,18.44
2023-04-17T12:53:53.863Z,19.06
2023-04-17T12:55:38.526Z,18.76
2023-04-17T12:57:11.531Z,17.92
2023-04-17T12:58:45.354Z,17.22
2023-04-17T13:00:07.275Z,16.68
2023-04-17T13:01:43.629Z,16.36
2023-04-17T13:03:17.898Z,16.99
2023-04-17T13:05:03.303Z,17.93
2023-04-17T13:06:27.105Z,18.77
2023-04-17T13:08:22.216Z,18.94
2023-04-17T13:09:58.167Z,18.19
2023-04-17T13:11:33.751Z,17.54
2023-04-17T13:13:07.267Z,16.91
2023-04-17T13:14:43.510Z,16.38
2023-04-17T13:16:17.208Z,16.76
2023-04-17T13:17:58.092Z,17.70
2023-04-17T13:19:31.850Z,18.71
2023-04-17T13:21:06.544Z,18.97
2023-04-17T13:23:01.198Z,18.41
2023-04-17T13:24:54.619Z,17.52
2023-04-17T13:26:25.804Z,16.81
2023-04-17T13:28:09.218Z,16.33
2023-04-17T13:29:43.010Z,16.76
2023-04-17T13:31:28.311Z,17.72
2023-04-17T13:35:09.075Z,19.03
2023-04-17T13:36:44.934Z,18.38
2023-04-17T13:38:30.398Z,17.68
2023-04-17T13:40:05.474Z,17.07
2023-04-17T13:41:26.976Z,16.68
2023-04-17T13:43:08.816Z,16.44
2023-04-17T13:44:44.385Z,17.21
2023-04-17T13:46:18.210Z,18.18
2023-04-17T13:48:13.294Z,19.13
2023-04-17T13:49:51.997Z,18.97
2023-04-17T13:51:32.462Z,18.34
2023-04-17T13:53:04.354Z,17.78
2023-04-17T13:54:26.196Z,17.35
2023-04-17T13:56:00.010Z,16.97
2023-04-17T13:57:53.236Z,16.65
2023-04-17T13:59:28.717Z,16.33
2023-04-17T14:00:57.910Z,16.07
2023-04-17T14:02:33.649Z,16.38
2023-04-17T14:04:17.354Z,17.42
2023-04-17T14:05:53.898Z,18.63
2023-04-17T14:07:29.946Z,19.19
2023-04-17T14:08:54.204Z,18.88
2023-04-17T14:10:39.232Z,18.24
2023-04-17T14:12:34.167Z,17.59
2023-04-17T14:14:07.746Z,17.00
2023-04-17T14:15:54.924Z,16.62
2023-04-17T14:17:27.839Z,16.25
2023-04-17T14:19:14.685Z,15.96
2023-04-17T14:21:00.576Z,15.86
2023-04-17T14:22:45.601Z,16.79
2023-04-17T14:24:19.122Z,18.09
2023-04-17T14:25:52.911Z,18.67
2023-04-17T14:27:28.424Z,18.42
2023-04-17T14:29:01.948Z,17.87
2023-04-17T14:30:23.969Z,17.34
2023-04-17T14:31:58.201Z,16.94
2023-04-17T14:33:31.773Z,16.59
2023-04-17T14:34:55.819Z,16.29
2023-04-17T14:36:31.259Z,16.02
2023-04-17T14:38:13.105Z,15.80
2023-04-17T14:39:49.542Z,15.97
2023-04-17T14:41:34.892Z,17.01
2023-04-17T14:43:11.773Z,18.10
2023-04-17T14:44:45.630Z,18.44
2023-04-17T14:46:27.928Z,18.06
2023-04-17T14:48:13.268Z,17.45
2023-04-17T14:49:47.192Z,16.83
2023-04-17T14:51:31.950Z,16.40
2023-04-17T14:53:04.371Z,16.01
2023-04-17T14:54:28.150Z,15.71
2023-04-17T14:56:03.710Z,15.51
2023-04-17T14:57:25.833Z,16.03
2023-04-17T14:59:06.506Z,17.04
2023-04-17T15:00:32.894Z,18.06
2023-04-17T15:01:55.690Z,18.52
2023-04-17T15:03:50.285Z,18.09
2023-04-17T15:05:28.192Z,17.28
2023-04-17T15:07:10.650Z,16.58
2023-04-17T15:09:05.182Z,15.96
2023-04-17T15:10:50.801Z,16.40
2023-04-17T15:12:33.191Z,17.53
2023-04-17T15:13:57.487Z,18.33
2023-04-17T15:15:22.024Z,18.86
2023-04-17T15:16:51.317Z,18.71
2023-04-17T15:18:27.182Z,17.95
2023-04-17T15:20:09.269Z,17.29
2023-04-17T15:21:33.250Z,16.60
2023-04-17T15:23:19.746Z,16.26
2023-04-17T15:25:05.207Z,16.87
2023-04-17T15:26:27.387Z,17.87
2023-04-17T15:27:49.062Z,18.55
2023-04-17T15:29:21.832Z,18.58
2023-04-17T15:30:45.898Z,17.96
2023-04-17T15:32:14.796Z,17.21
2023-04-17T15:34:00.209Z,16.56
2023-04-17T15:35:33.206Z,15.86
2023-04-17T15:37:07.191Z,16.03
2023-04-17T15:38:48.344Z,16.94
2023-04-17T15:40:19.810Z,17.75
2023-04-17T15:44:25.177Z,18.06
2023-04-17T15:46:18.991Z,17.04
2023-04-17T15:48:04.039Z,16.09
2023-04-17T15:49:33.130Z,15.65
2023-04-17T15:51:15.244Z,16.10
2023-04-17T15:53:05.178Z,17.06
2023-04-17T15:54:26.948Z,17.84
2023-04-17T15:56:20.374Z,18.23
2023-04-17T15:57:56.045Z,17.63
2023-04-17T15:59:41.185Z,16.78
2023-04-17T16:01:26.493Z,15.90
2023-04-17T16:03:19.765Z,15.53
2023-04-17T16:05:05.384Z,16.31
2023-04-17T16:06:29.677Z,17.14
2023-04-17T16:08:01.293Z,17.76
2023-04-17T16:09:46.516Z,18.22
2023-04-17T16:11:20.714Z,17.94
2023-04-17T16:13:15.168Z,17.02
2023-04-17T16:14:50.759Z,16.10
2023-04-17T16:16:27.177Z,15.61
2023-04-17T16:18:00.871Z,16.17
2023-04-17T16:19:36.515Z,16.99
2023-04-17T16:21:06.223Z,17.63
2023-04-17T16:22:39.655Z,18.21
2023-04-17T16:24:13.149Z,18.14
2023-04-17T16:25:57.995Z,17.39
2023-04-17T16:27:48.044Z,16.42
2023-04-17T16:29:12.193Z,15.65
2023-04-17T16:30:47.750Z,15.80
2023-04-17T16:32:32.826Z,16.54
2023-04-17T16:34:06.410Z,17.36
2023-04-17T16:35:39.728Z,17.94
2023-04-17T16:37:24.840Z,18.27
2023-04-17T16:39:19.181Z,17.73
2023-04-17T16:41:11.168Z,16.71
2023-04-17T16:42:44.668Z,15.79
2023-04-17T16:44:14.502Z,15.86
2023-04-17T16:45:38.411Z,16.49
2023-04-17T16:48:39.960Z,17.83
2023-04-17T16:50:14.157Z,18.28
2023-04-17T16:51:35.864Z,18.11
2023-04-17T16:52:58.052Z,17.46
2023-04-17T16:54:39.110Z,16.62
2023-04-17T16:56:24.486Z,15.83
2023-04-17T16:58:09.242Z,16.02
2023-04-17T16:59:54.555Z,16.93
2023-04-17T17:01:28.211Z,17.69
2023-04-17T17:02:50.569Z,18.17
2023-04-17T17:04:20.237Z,18.33
2023-04-17T17:05:46.488Z,17.76
2023-04-17T17:07:16.298Z,16.98
2023-04-17T17:08:49.856Z,16.18
2023-04-17T17:10:23.541Z,15.87
2023-04-17T17:11:57.039Z,16.49
2023-04-17T17:13:19.043Z,17.17
2023-04-17T17:14:45.687Z,17.79
2023-04-17T17:16:21.587Z,18.30
2023-04-17T17:17:43.630Z,18.31
2023-04-17T17:19:05.939Z,17.68
2023-04-17T17:20:35.267Z,16.91
2023-04-17T17:21:57.344Z,16.12
2023-04-17T17:23:32.213Z,15.64
2023-04-17T17:25:14.258Z,16.03
2023-04-17T17:26:37.065Z,16.86
2023-04-17T17:28:01.865Z,17.47
2023-04-17T17:29:33.616Z,17.99
2023-04-17T17:30:56.231Z,18.29
2023-04-17T17:32:29.492Z,17.92
2023-04-17T17:35:53.083Z,16.00
2023-04-17T17:37:25.229Z,15.77
2023-04-17T17:39:00.248Z,16.31
2023-04-17T17:40:29.646Z,17.11
2023-04-17T17:41:51.568Z,17.67
2023-04-17T17:43:13.477Z,18.12
2023-04-17T17:44:49.176Z,18.27
2023-04-17T17:46:34.303Z,17.63
2023-04-17T17:48:21.663Z,16.63
2023-04-17T17:49:57.009Z,15.81
2023-04-17T17:51:37.927Z,16.02
2023-04-17T17:53:26.388Z,16.79
2023-04-17T17:54:53.795Z,17.52
2023-04-17T17:56:38.649Z,18.05
2023-04-17T17:58:24.619Z,18.24
2023-04-17T17:59:51.660Z,17.58
2023-04-17T18:01:16.329Z,16.78
2023-04-17T18:03:02.128Z,15.93
2023-04-17T18:04:36.238Z,15.72
2023-04-17T18:06:21.737Z,16.37
2023-04-17T18:08:02.707Z,17.21
2023-04-17T18:09:36.582Z,17.87
2023-04-17T18:11:22.130Z,18.30
2023-04-17T18:13:05.202Z,18.05
2023-04-17T18:14:42.117Z,17.13
2023-04-17T18:16:27.191Z,16.15
2023-04-17T18:18:01.224Z,15.76
2023-04-17T18:19:42.117Z,16.38
2023-04-17T18:21:23.462Z,17.11
2023-04-17T18:22:59.143Z,17.83
2023-04-17T18:24:32.928Z,18.28
2023-04-17T18:26:26.629Z,17.98
2023-04-17T18:28:11.904Z,16.97
2023-04-17T18:29:47.418Z,16.12
2023-04-17T18:31:21.859Z,15.69
2023-04-17T18:32:44.730Z,16.20
2023-04-17T18:34:30.593Z,16.98
2023-04-17T18:36:06.649Z,17.67
2023-04-17T18:37:47.780Z,18.23
2023-04-17T18:39:21.663Z,18.18
2023-04-17T18:41:02.614Z,17.35
2023-04-17T18:42:26.822Z,16.51
2023-04-17T18:44:10.329Z,15.86
2023-04-17T18:47:58.320Z,17.10
2023-04-17T18:49:30.076Z,17.84
2023-04-17T18:51:15.484Z,18.36
2023-04-17T18:53:00.748Z,17.94
2023-04-17T18:54:30.708Z,17.09
2023-04-17T18:56:16.248Z,16.17
2023-04-17T18:57:52.508Z,15.62
2023-04-17T18:59:26.387Z,16.04
2023-04-17T19:01:13.416Z,16.91
2023-04-17T19:02:55.592Z,17.62
2023-04-17T19:04:31.636Z,18.14
2023-04-17T19:06:14.284Z,17.81
2023-04-17T19:08:00.122Z,16.78
2023-04-17T19:09:31.627Z,15.85
2023-04-17T19:11:25.415Z,15.39
2023-04-17T19:13:20.252Z,16.04
2023-04-17T19:15:10.679Z,17.00
2023-04-17T19:16:47.454Z,17.73
2023-04-17T19:18:32.656Z,17.88
2023-04-17T19:20:08.832Z,17.13
2023-04-17T19:21:41.044Z,16.34
2023-04-17T19:23:20.622Z,15.60
2023-04-17T19:24:42.109Z,15.20
2023-04-17T19:26:09.169Z,15.68
2023-04-17T19:27:43.246Z,16.43
2023-04-17T19:29:25.699Z,17.16
2023-04-17T19:31:00.844Z,17.75
2023-04-17T19:32:41.945Z,17.40
2023-04-17T19:34:15.877Z,16.63
2023-04-17T19:35:49.495Z,15.71
2023-04-17T19:37:34.552Z,15.15
2023-04-17T19:38:59.758Z,15.53
2023-04-17T19:40:33.186Z,16.40
2023-04-17T19:42:15.847Z,17.14
2023-04-17T19:43:49.683Z,17.75
2023-04-17T19:45:21.776Z,17.40
2023-04-17T19:47:10.280Z,16.62
2023-04-17T19:48:44.505Z,15.75
2023-04-17T19:50:18.109Z,15.17
2023-04-17T19:53:56.688Z,15.78
2023-04-17T19:55:42.397Z,16.76
2023-04-17T19:57:16.300Z,17.49
2023-04-17T19:59:11.649Z,17.27
2023-04-17T20:00:41.881Z,16.44
2023-04-17T20:02:07.478Z,15.66
2023-04-17T20:03:52.119Z,14.96
2023-04-17T20:05:46.152Z,14.86
2023-04-17T20:07:40.696Z,15.82
2023-04-17T20:09:23.117Z,16.76
2023-04-17T20:10:56.567Z,17.26
2023-04-17T20:12:41.575Z,16.78
2023-04-17T20:14:15.750Z,15.92
2023-04-17T20:16:10.679Z,15.18
2023-04-17T20:17:55.507Z,14.47
2023-04-17T20:19:41.004Z,14.66
2023-04-17T20:21:17.146Z,15.65
2023-04-17T20:22:52.772Z,16.46
2023-04-17T20:24:37.763Z,17.21
2023-04-17T20:26:22.776Z,16.97
2023-04-17T20:27:59.823Z,16.23
2023-04-17T20:29:44.764Z,15.46
2023-04-17T20:31:21.009Z,14.71
2023-04-17T20:33:06.436Z,14.76
2023-04-17T20:34:41.381Z,15.70
2023-04-17T20:36:11.067Z,16.51
2023-04-17T20:37:44.196Z,17.16
2023-04-17T20:39:29.586Z,16.96
2023-04-17T20:40:54.618Z,16.22
2023-04-17T20:42:39.279Z,15.50
2023-04-17T20:44:33.687Z,14.82
2023-04-17T20:46:07.320Z,14.57
2023-04-17T20:47:56.887Z,15.41
2023-04-17T20:49:42.445Z,16.51
2023-04-17T20:51:27.566Z,17.18
2023-04-17T20:52:52.170Z,16.83
2023-04-17T20:54:26.393Z,16.08
2023-04-17T20:55:48.650Z,15.44
2023-04-17T20:57:12.887Z,14.89
2023-04-17T20:58:53.081Z,14.46
2023-04-17T21:00:22.269Z,14.90
2023-04-17T21:01:46.427Z,15.78
2023-04-17T21:03:10.502Z,16.61
2023-04-17T21:04:51.265Z,17.08
2023-04-17T21:06:17.734Z,16.67
2023-04-17T21:07:41.656Z,15.97
2023-04-17T21:09:13.809Z,15.27
2023-04-17T21:10:35.591Z,14.68
2023-04-17T21:12:20.985Z,14.22
2023-04-17T21:13:54.799Z,14.74
2023-04-17T21:15:23.999Z,15.54
2023-04-17T21:16:50.379Z,16.35
2023-04-17T21:18:14.328Z,16.86
2023-04-17T21:20:01.595Z,16.60